Terminal Aerodrome Forecast
Issued by NWS

Home | Current Version | Previous Version | Graphics & Text | Print | Product List | Glossary On
Versions: 1 2 3 4 5 6 7 8 9 10 11 12 13
762
FTUS42 KMHX 041140
TAFISO
TAF
KISO 041140Z 0412/0512 16008KT 6SM -RA OVC006
     FM041400 19008KT 4SM -RA OVC006
     FM041600 02011G15KT 4SM -RA OVC005
     FM050000 02013G17KT 4SM -RA BR OVC007
     FM050600 36016G22KT 6SM -RA BR OVC003
      AMD LTD TO CLD VIS AND WIND=

USA.gov is the U.S. government's official web portal to all federal, state and local government web resources and services.